LHR weather

London Heathrow Airport
London, England, United Kingdom

Public forecast

Using degrees Celsius for public forecast. Weather courtesy of forecast.io.

METAR (pilot weather report)

Retrieved 2017/04/24 08:50 UTC (20 minutes ago):

EGLL 240850Z AUTO 29007KT 9999 SCT038 12/06 Q1017 NOSIG

TAF (pilot weather forecast)

Retrieved 2017/04/24 06:15 UTC (3 hours ago):

TAF EGLL 240457Z 2406/2512 26006KT 9999 SCT035 PROB30 TEMPO 2412/2415 8000 -SHRA BECMG 2415/2418 32012KT PROB30 TEMPO 2415/2419 6000 SHRA BKN014